Terminal Aerodrome Forecast
Issued by NWS

Home | Current Version | Previous Version | Text Only | Print | Product List | Glossary On
Versions: 1 2 3 4 5 6 7 8 9 10 11 12 13 14 15 16 17 18 19 20 21 22
000
FTUS41 KCAR 261720
TAFBHB
TAF
KBHB 261720Z 2618/2718 01006KT P6SM BKN200
     FM262200 02008KT P6SM BKN080 OVC200
     FM270300 03012G18KT P6SM BKN040 OVC060
     FM270500 03015G25KT 1 1/2SM -SN OVC012
     FM270700 03018G28KT 1/2SM SN FZFG OVC003
     FM270900 03030G45KT 1/4SM +SN VV002
      AMD LTD TO CLD VIS AND WIND=

USA.gov is the U.S. government's official web portal to all federal, state and local government web resources and services.